Time;durP1;ratioP1;P1;durP2;ratioP2;P2;SDS_P1;SDS_P2;PMS_P1;PMS_P2;Temp;Humidity;BMP_temperature;BMP_pressure;BME280_temperature;BME280_humidity;BME280_pressure;Samples;Min_cycle;Max_cycle;Signal;HPM_P1;HPM_P2
2023/02/12 00:01:12;;;;;;;1.03;0.80;;;7.60;98.00;;;;;;5096325;28;20212;-65
2023/02/12 00:03:40;;;;;;;1.87;1.10;;;7.60;98.00;;;;;;5096435;28;20203;-65
2023/02/12 00:06:07;;;;;;;1.10;0.80;;;7.60;98.00;;;;;;5105175;28;20200;-65
2023/02/12 00:08:35;;;;;;;0.63;0.60;;;7.60;97.90;;;;;;5092267;27;20612;-65
2023/02/12 00:11:08;;;;;;;0.67;0.67;;;7.50;97.80;;;;;;5122174;27;20192;-65
2023/02/12 00:13:36;;;;;;;2.30;0.83;;;7.60;97.80;;;;;;5110981;27;20199;-66
2023/02/12 00:16:08;;;;;;;1.17;0.80;;;7.50;97.80;;;;;;5101665;28;20188;-66
2023/02/12 00:18:36;;;;;;;2.10;0.67;;;7.50;97.50;;;;;;5100142;27;20196;-66
2023/02/12 00:21:04;;;;;;;0.97;0.57;;;7.50;97.30;;;;;;5104862;28;20629;-66
2023/02/12 00:23:31;;;;;;;1.03;0.50;;;7.50;97.20;;;;;;5103489;28;20316;-65
2023/02/12 00:25:58;;;;;;;0.70;0.50;;;7.50;97.10;;;;;;5099479;28;20192;-65
2023/02/12 00:28:26;;;;;;;1.77;0.57;;;7.50;96.90;;;;;;5106568;28;20279;-66
2023/02/12 00:30:54;;;;;;;0.53;0.53;;;7.50;96.80;;;;;;5106132;28;20184;-66
2023/02/12 00:33:21;;;;;;;1.30;0.60;;;7.60;96.80;;;;;;5102003;27;20206;-65
2023/02/12 00:35:56;;;;;;;1.73;0.70;;;7.60;96.70;;;;;;5101986;28;20198;-65
2023/02/12 00:38:23;;;;;;;1.77;0.73;;;7.60;96.50;;;;;;5102949;28;20195;-65
2023/02/12 00:40:50;;;;;;;3.00;0.67;;;7.60;96.30;;;;;;5105079;28;20208;-65
2023/02/12 00:43:17;;;;;;;0.70;0.50;;;7.60;96.30;;;;;;5105098;28;20531;-66
2023/02/12 00:45:45;;;;;;;1.50;0.77;;;7.60;96.30;;;;;;5101626;28;20200;-65
2023/02/12 00:48:14;;;;;;;2.40;0.83;;;7.60;96.20;;;;;;5105119;27;20271;-65
2023/02/12 00:50:44;;;;;;;1.07;0.60;;;8.80;96.60;;;;;;5104287;28;20194;-65
2023/02/12 00:53:11;;;;;;;0.57;0.50;;;7.60;95.70;;;;;;5106945;28;20703;-66
2023/02/12 00:55:38;;;;;;;0.90;0.60;;;7.60;95.70;;;;;;5106897;27;20216;-66
2023/02/12 00:58:05;;;;;;;0.40;0.40;;;7.60;95.60;;;;;;5106703;28;20583;-65
2023/02/12 01:00:33;;;;;;;0.70;0.53;;;7.70;95.50;;;;;;5105338;28;20540;-66
2023/02/12 01:03:00;;;;;;;0.57;0.40;;;7.70;95.30;;;;;;5103298;28;20188;-66
2023/02/12 01:05:29;;;;;;;1.03;0.40;;;7.60;95.20;;;;;;5099471;28;20207;-66
2023/02/12 01:07:57;;;;;;;0.70;0.40;;;7.60;95.20;;;;;;5105273;27;20191;-65
2023/02/12 01:10:24;;;;;;;0.67;0.50;;;7.60;95.00;;;;;;5108710;27;20286;-66
2023/02/12 01:12:51;;;;;;;1.30;0.60;;;7.60;95.10;;;;;;5106469;27;20203;-66
2023/02/12 01:15:19;;;;;;;2.00;0.50;;;7.60;94.90;;;;;;5105275;27;20196;-66
2023/02/12 01:17:48;;;;;;;0.50;0.50;;;7.60;94.90;;;;;;5104485;28;20200;-66
2023/02/12 01:20:19;;;;;;;0.57;0.40;;;7.60;94.80;;;;;;5100055;28;20579;-66
2023/02/12 01:22:48;;;;;;;0.50;0.50;;;7.50;94.70;;;;;;5104657;28;20710;-66
2023/02/12 01:25:16;;;;;;;0.60;0.33;;;7.60;94.80;;;;;;5102568;28;20283;-66
2023/02/12 01:27:43;;;;;;;1.07;0.50;;;7.60;95.10;;;;;;5103767;28;20184;-66
2023/02/12 01:30:14;;;;;;;0.67;0.50;;;7.60;94.70;;;;;;5105130;28;20192;-65
2023/02/12 01:32:41;;;;;;;0.37;0.37;;;7.60;94.70;;;;;;5105601;28;20646;-65
2023/02/12 01:35:09;;;;;;;0.40;0.40;;;7.60;94.70;;;;;;5106485;28;20207;-65
2023/02/12 01:37:37;;;;;;;0.30;0.30;;;7.60;94.60;;;;;;5100234;28;20193;-66
2023/02/12 01:40:09;;;;;;;0.40;0.37;;;7.50;94.60;;;;;;5101925;28;20551;-66
2023/02/12 01:42:36;;;;;;;1.17;0.37;;;7.50;94.60;;;;;;5099436;28;20203;-66
2023/02/12 01:45:53;;;;;;;0.83;0.40;;;7.60;94.60;;;;;;5102332;28;20286;-66
2023/02/12 01:48:23;;;;;;;0.50;0.50;;;7.50;94.50;;;;;;5102188;28;20190;-65
2023/02/12 01:50:53;;;;;;;0.40;0.40;;;7.50;94.40;;;;;;5103377;28;20188;-66
2023/02/12 01:53:23;;;;;;;0.90;0.50;;;7.50;94.40;;;;;;5105479;28;20203;-66
2023/02/12 01:55:56;;;;;;;0.57;0.30;;;7.50;94.40;;;;;;5106657;28;20188;-66
2023/02/12 01:58:25;;;;;;;1.40;0.37;;;7.50;94.30;;;;;;5106125;28;20706;-66
2023/02/12 02:00:52;;;;;;;0.40;0.40;;;7.50;94.30;;;;;;5103276;28;20188;-66
2023/02/12 02:03:20;;;;;;;0.40;0.40;;;7.50;94.30;;;;;;5104316;28;20191;-66
2023/02/12 02:05:54;;;;;;;0.53;0.37;;;7.50;94.20;;;;;;5105227;28;20207;-66
2023/02/12 02:08:22;;;;;;;0.40;0.40;;;7.50;94.20;;;;;;5102059;28;20509;-66
2023/02/12 02:10:50;;;;;;;0.73;0.37;;;7.40;94.20;;;;;;5106431;28;20682;-66
2023/02/12 02:16:05;;;;;;;0.30;0.30;;;7.40;94.10;;;;;;5071191;28;20207;-66
2023/02/12 02:18:42;;;;;;;0.50;0.50;;;7.40;94.10;;;;;;5104424;28;20194;-66
2023/02/12 02:21:35;;;;;;;2.10;0.50;;;7.40;94.00;;;;;;5104627;28;20207;-66
2023/02/12 02:24:31;;;;;;;0.40;0.40;;;7.30;94.10;;;;;;5102337;28;20199;-65
2023/02/12 02:27:27;;;;;;;0.83;0.50;;;7.30;94.10;;;;;;5101903;28;20726;-66
2023/02/12 02:30:29;;;;;;;1.17;0.40;;;7.20;94.10;;;;;;5104246;28;20191;-66
2023/02/12 02:33:12;;;;;;;0.50;0.40;;;7.20;94.20;;;;;;5101792;28;20278;-65
2023/02/12 02:35:46;;;;;;;1.53;0.57;;;7.20;94.20;;;;;;5102305;28;20204;-66
2023/02/12 02:38:23;;;;;;;0.50;0.50;;;7.10;94.10;;;;;;5106651;28;20596;-65
2023/02/12 02:40:56;;;;;;;0.60;0.50;;;7.10;94.00;;;;;;5098945;28;20203;-65
2023/02/12 02:43:29;;;;;;;2.43;0.40;;;8.30;94.50;;;;;;5098464;28;20199;-65
2023/02/12 02:46:02;;;;;;;0.77;0.70;;;7.10;94.00;;;;;;5102367;28;20203;-66
2023/02/12 02:48:36;;;;;;;0.50;0.50;;;7.10;94.00;;;;;;5100317;28;20207;-65
2023/02/12 02:51:09;;;;;;;0.50;0.43;;;7.10;94.00;;;;;;5103977;28;20188;-66
2023/02/12 02:53:41;;;;;;;0.30;0.30;;;7.10;94.10;;;;;;5116830;28;20198;-66
2023/02/12 02:56:14;;;;;;;0.40;0.40;;;7.00;94.00;;;;;;5103053;28;20196;-66
2023/02/12 02:58:44;;;;;;;0.33;0.33;;;7.00;94.00;;;;;;5101822;28;20199;-66
2023/02/12 03:01:17;;;;;;;0.47;0.40;;;7.00;94.10;;;;;;5099806;28;20200;-66
2023/02/12 03:03:51;;;;;;;0.40;0.40;;;7.00;94.10;;;;;;5099587;28;20213;-65
2023/02/12 03:06:30;;;;;;;0.70;0.50;;;6.90;94.10;;;;;;5103392;28;20574;-65
2023/02/12 03:09:02;;;;;;;2.53;0.50;;;6.90;94.20;;;;;;5102446;28;20677;-65
2023/02/12 03:11:32;;;;;;;0.90;0.60;;;6.90;94.20;;;;;;5104143;28;20198;-65
2023/02/12 03:14:03;;;;;;;0.57;0.50;;;6.90;94.20;;;;;;5107401;28;20709;-65
2023/02/12 03:16:33;;;;;;;1.43;0.57;;;6.90;94.20;;;;;;5103427;28;20563;-66
2023/02/12 03:19:09;;;;;;;0.40;0.40;;;6.90;94.20;;;;;;5103236;28;20191;-65
2023/02/12 03:21:41;;;;;;;1.80;0.73;;;6.90;94.20;;;;;;5103712;28;20254;-66
2023/02/12 03:24:14;;;;;;;0.90;0.60;;;6.90;94.20;;;;;;5102950;28;20199;-65
2023/02/12 03:26:46;;;;;;;2.30;0.90;;;6.80;94.20;;;;;;5102794;28;20196;-65
2023/02/12 03:29:13;;;;;;;0.83;0.80;;;6.90;94.30;;;;;;5104773;28;20625;-65
2023/02/12 03:31:51;;;;;;;1.33;0.70;;;6.90;94.30;;;;;;5103655;28;20198;-65
2023/02/12 03:34:28;;;;;;;1.33;0.90;;;6.80;94.30;;;;;;5103876;28;20196;-65
2023/02/12 03:37:01;;;;;;;2.27;1.13;;;6.80;94.40;;;;;;5102879;28;20192;-65
2023/02/12 03:39:33;;;;;;;1.03;0.90;;;6.80;94.40;;;;;;5104773;28;20195;-65
2023/02/12 03:42:05;;;;;;;1.47;0.80;;;6.70;94.40;;;;;;5100431;28;20702;-65
2023/02/12 03:44:46;;;;;;;2.57;1.20;;;6.70;94.50;;;;;;5101306;28;20564;-65
2023/02/12 03:47:21;;;;;;;1.10;1.00;;;6.70;94.50;;;;;;5098107;28;20184;-65
2023/02/12 03:49:58;;;;;;;2.83;1.20;;;6.60;94.60;;;;;;5105057;28;20184;-65
2023/02/12 03:52:26;;;;;;;1.20;1.03;;;6.60;94.70;;;;;;5098452;28;20184;-65
2023/02/12 03:54:53;;;;;;;2.20;1.20;;;6.60;94.70;;;;;;5103342;28;20191;-66
2023/02/12 03:57:22;;;;;;;1.80;0.87;;;6.60;94.80;;;;;;5104398;28;20200;-65
2023/02/12 03:59:50;;;;;;;1.60;1.00;;;6.60;94.80;;;;;;5108076;28;20228;-65
2023/02/12 04:02:19;;;;;;;1.33;1.23;;;6.50;94.80;;;;;;5097672;28;20269;-65
2023/02/12 04:04:47;;;;;;;1.20;1.03;;;6.50;94.80;;;;;;5104215;28;20655;-65
2023/02/12 04:07:16;;;;;;;2.40;1.30;;;6.50;94.80;;;;;;5105647;28;20274;-65
2023/02/12 04:09:44;;;;;;;1.00;1.00;;;6.50;94.80;;;;;;5107667;27;20215;-65
2023/02/12 04:12:27;;;;;;;1.30;1.10;;;6.50;94.80;;;;;;5108780;28;20195;-65
2023/02/12 04:15:02;;;;;;;0.83;0.83;;;6.50;94.90;;;;;;5108844;28;20191;-65
2023/02/12 04:17:40;;;;;;;1.50;1.00;;;6.50;94.90;;;;;;5104578;28;20198;-65
2023/02/12 04:20:16;;;;;;;2.97;1.20;;;6.50;94.90;;;;;;5108987;28;20198;-65
2023/02/12 04:22:54;;;;;;;1.33;1.10;;;6.50;94.90;;;;;;5105985;28;20592;-64
2023/02/12 04:25:33;;;;;;;3.13;1.33;;;6.50;94.90;;;;;;5100978;28;20558;-64
2023/02/12 04:28:10;;;;;;;2.67;1.40;;;6.40;94.90;;;;;;5104807;28;20195;-65
2023/02/12 04:30:43;;;;;;;2.43;1.33;;;6.40;94.90;;;;;;5104530;28;20188;-65
2023/02/12 04:33:14;;;;;;;1.77;0.97;;;6.40;94.90;;;;;;5106090;28;20194;-65
2023/02/12 04:35:48;;;;;;;1.53;1.17;;;6.30;94.90;;;;;;5121915;27;20206;-64
2023/02/12 04:38:22;;;;;;;1.00;0.90;;;6.30;95.00;;;;;;5107347;28;20218;-64
2023/02/12 04:40:50;;;;;;;2.20;1.20;;;6.30;95.00;;;;;;5106444;28;20192;-65
2023/02/12 04:43:27;;;;;;;2.30;1.30;;;6.30;95.00;;;;;;5104329;28;20214;-65
2023/02/12 04:45:55;;;;;;;2.07;1.43;;;6.20;95.10;;;;;;5105177;28;20199;-65
2023/02/12 04:48:22;;;;;;;2.50;1.20;;;6.20;95.20;;;;;;5104585;28;20231;-65
2023/02/12 04:50:49;;;;;;;2.57;1.10;;;6.20;95.20;;;;;;5106379;28;20200;-65
2023/02/12 04:53:18;;;;;;;1.40;1.13;;;6.20;95.20;;;;;;5105952;28;20197;-65
2023/02/12 04:55:46;;;;;;;2.17;1.20;;;6.20;95.10;;;;;;5108166;28;20202;-65
2023/02/12 04:58:14;;;;;;;1.80;1.20;;;6.20;95.10;;;;;;5103667;28;20188;-65
2023/02/12 05:00:41;;;;;;;1.77;1.33;;;6.20;95.10;;;;;;5104728;27;20196;-65
2023/02/12 05:03:08;;;;;;;1.43;1.33;;;6.20;95.10;;;;;;5102907;27;20218;-65
2023/02/12 05:05:35;;;;;;;2.63;1.50;;;6.20;95.20;;;;;;5100638;28;20192;-65
2023/02/12 05:08:02;;;;;;;1.17;0.97;;;6.10;95.20;;;;;;5108596;28;20203;-65
2023/02/12 05:10:31;;;;;;;1.30;1.20;;;6.10;95.60;;;;;;5108205;28;20197;-65
2023/02/12 05:12:58;;;;;;;2.63;1.33;;;6.10;95.30;;;;;;5107813;28;20667;-65
2023/02/12 05:15:25;;;;;;;1.77;1.47;;;6.10;95.30;;;;;;5106792;28;20195;-65
2023/02/12 05:17:52;;;;;;;2.40;1.23;;;6.10;95.30;;;;;;5102700;28;20200;-65
2023/02/12 05:20:19;;;;;;;1.43;1.17;;;6.10;95.30;;;;;;5106333;28;20194;-65
2023/02/12 05:22:46;;;;;;;1.87;1.43;;;6.10;95.30;;;;;;5104802;28;20222;-65
2023/02/12 05:25:13;;;;;;;1.47;1.00;;;6.10;95.30;;;;;;5101969;28;20206;-66
2023/02/12 05:27:42;;;;;;;1.83;1.30;;;6.10;95.30;;;;;;5104809;28;20205;-66
2023/02/12 05:30:10;;;;;;;1.43;1.20;;;6.10;95.30;;;;;;5098131;28;20202;-65
2023/02/12 05:32:37;;;;;;;2.37;1.17;;;6.10;95.20;;;;;;5092832;28;20213;-68
2023/02/12 05:35:05;;;;;;;1.97;1.30;;;6.10;95.30;;;;;;5106063;28;20638;-67
2023/02/12 05:37:35;;;;;;;2.17;1.20;;;6.10;95.30;;;;;;5100795;28;20206;-67
2023/02/12 05:40:02;;;;;;;2.40;1.53;;;6.10;95.30;;;;;;5100645;28;20193;-66
2023/02/12 05:42:29;;;;;;;1.90;1.30;;;6.10;95.30;;;;;;5099442;28;20223;-68
2023/02/12 05:44:58;;;;;;;1.77;1.27;;;6.10;95.30;;;;;;5103345;28;20277;-67
2023/02/12 05:47:25;;;;;;;3.20;1.40;;;6.10;95.30;;;;;;5096998;28;20203;-66
2023/02/12 05:49:52;;;;;;;2.83;1.50;;;6.10;95.30;;;;;;5102838;28;20562;-66
2023/02/12 05:52:19;;;;;;;2.50;1.70;;;6.10;95.40;;;;;;5100396;28;20198;-67
2023/02/12 05:54:49;;;;;;;2.00;1.17;;;6.10;95.40;;;;;;5105101;28;20203;-66
2023/02/12 05:57:17;;;;;;;1.30;1.20;;;6.10;95.40;;;;;;5101583;28;20197;-66
2023/02/12 05:59:44;;;;;;;1.43;1.33;;;6.10;95.40;;;;;;5102473;28;20198;-67
2023/02/12 06:02:12;;;;;;;2.30;1.50;;;6.00;95.40;;;;;;5100911;28;20205;-67
2023/02/12 06:04:39;;;;;;;5.10;1.57;;;6.00;95.40;;;;;;5106712;27;20194;-67
2023/02/12 06:07:07;;;;;;;1.40;1.13;;;6.00;95.50;;;;;;5100468;28;20208;-66
2023/02/12 06:09:34;;;;;;;2.13;1.60;;;6.00;95.50;;;;;;5104756;28;20248;-66
2023/02/12 06:12:02;;;;;;;2.20;1.30;;;6.00;95.50;;;;;;5104666;28;20605;-66
2023/02/12 06:14:29;;;;;;;2.73;1.30;;;5.90;95.50;;;;;;5098674;28;20194;-67
2023/02/12 06:16:56;;;;;;;3.20;1.40;;;5.90;95.50;;;;;;5103829;28;20569;-66
2023/02/12 06:19:25;;;;;;;2.37;1.63;;;5.90;95.50;;;;;;5103966;28;20205;-67
2023/02/12 06:21:52;;;;;;;3.97;1.87;;;5.90;95.60;;;;;;5091167;28;20733;-68
2023/02/12 06:24:19;;;;;;;2.83;1.47;;;5.90;95.60;;;;;;5103605;28;20215;-67
2023/02/12 06:26:49;;;;;;;2.93;2.00;;;5.90;95.60;;;;;;5102846;28;20198;-66
2023/02/12 06:29:16;;;;;;;2.27;1.73;;;5.90;95.60;;;;;;5102202;28;20193;-67
2023/02/12 06:31:43;;;;;;;2.80;1.77;;;5.90;95.60;;;;;;5118451;27;20198;-67
2023/02/12 06:34:12;;;;;;;2.63;1.60;;;5.90;95.60;;;;;;5097862;28;20213;-67
2023/02/12 06:36:43;;;;;;;4.00;2.33;;;5.90;95.70;;;;;;5097272;28;20241;-68
2023/02/12 06:39:11;;;;;;;2.23;1.70;;;5.90;95.70;;;;;;5101259;28;20239;-68
2023/02/12 06:41:38;;;;;;;4.53;2.10;;;5.90;95.70;;;;;;5101369;28;20514;-68
2023/02/12 06:44:06;;;;;;;5.23;2.00;;;5.90;95.70;;;;;;5099521;28;20544;-69
2023/02/12 06:46:33;;;;;;;4.13;2.30;;;5.90;95.70;;;;;;5105082;28;20198;-68
2023/02/12 06:49:01;;;;;;;5.47;2.50;;;6.00;95.70;;;;;;5099551;28;20214;-68
2023/02/12 06:51:30;;;;;;;4.43;2.70;;;6.00;95.70;;;;;;5101916;28;20533;-68
2023/02/12 06:53:59;;;;;;;7.37;3.30;;;6.00;95.70;;;;;;5100094;28;20254;-68
2023/02/12 06:56:27;;;;;;;4.97;2.80;;;6.00;95.70;;;;;;5104703;28;20186;-68
2023/02/12 06:58:55;;;;;;;5.33;3.17;;;6.00;95.70;;;;;;5099917;28;20195;-68
2023/02/12 07:01:24;;;;;;;5.17;2.93;;;6.10;95.80;;;;;;5098367;28;20206;-68
2023/02/12 07:03:53;;;;;;;5.27;2.97;;;6.10;95.70;;;;;;5103683;28;20226;-67
2023/02/12 07:06:21;;;;;;;7.10;2.80;;;6.10;95.70;;;;;;5093170;28;20271;-67
2023/02/12 07:08:48;;;;;;;4.10;2.60;;;6.00;95.70;;;;;;5104803;28;20191;-68
2023/02/12 07:11:17;;;;;;;5.57;2.70;;;6.10;95.80;;;;;;5103249;28;20204;-67
2023/02/12 07:13:45;;;;;;;4.30;2.40;;;6.10;95.70;;;;;;5100899;28;20604;-67
2023/02/12 07:16:14;;;;;;;5.03;2.70;;;6.20;95.80;;;;;;5105207;28;20209;-67
2023/02/12 07:18:43;;;;;;;6.23;3.37;;;6.20;95.70;;;;;;5102908;28;20202;-68
2023/02/12 07:21:12;;;;;;;4.80;2.93;;;6.20;95.60;;;;;;5103202;28;20200;-67
2023/02/12 07:23:39;;;;;;;2.83;2.03;;;6.20;95.50;;;;;;5099943;28;20239;-67
2023/02/12 07:26:09;;;;;;;3.57;2.13;;;6.20;95.50;;;;;;5105739;28;20210;-67
2023/02/12 07:28:37;;;;;;;4.40;2.27;;;6.30;95.50;;;;;;5101638;28;20690;-67
2023/02/12 07:31:08;;;;;;;3.57;2.13;;;6.30;95.50;;;;;;5100431;28;20192;-67
2023/02/12 07:33:36;;;;;;;2.70;1.73;;;6.40;95.60;;;;;;5103034;28;20196;-67
2023/02/12 07:36:05;;;;;;;1.63;1.53;;;6.50;95.50;;;;;;5104636;28;20267;-67
2023/02/12 07:38:34;;;;;;;3.53;2.50;;;6.50;95.60;;;;;;5105484;27;20580;-67
2023/02/12 07:41:07;;;;;;;8.20;3.53;;;6.50;95.50;;;;;;5106158;28;20264;-68
2023/02/12 07:43:34;;;;;;;9.50;3.83;;;6.50;95.40;;;;;;5100507;28;20270;-68
2023/02/12 07:46:08;;;;;;;8.40;3.70;;;6.50;95.40;;;;;;5104178;28;20659;-68
2023/02/12 07:48:35;;;;;;;5.93;3.40;;;6.60;95.50;;;;;;5105464;28;20188;-67
2023/02/12 07:51:05;;;;;;;6.57;3.33;;;6.60;95.50;;;;;;5103987;28;20198;-68
2023/02/12 07:53:32;;;;;;;10.60;3.93;;;6.60;95.40;;;;;;5109190;28;20263;-67
2023/02/12 07:56:06;;;;;;;10.03;3.97;;;6.60;95.30;;;;;;5102568;28;20567;-67
2023/02/12 07:58:33;;;;;;;7.57;3.63;;;6.70;95.30;;;;;;5107207;28;20190;-67
2023/02/12 08:01:00;;;;;;;8.53;4.30;;;6.70;95.30;;;;;;5100535;28;20688;-67
2023/02/12 08:03:29;;;;;;;10.07;4.03;;;6.80;95.30;;;;;;5103829;28;20680;-67
2023/02/12 08:05:56;;;;;;;5.27;3.30;;;6.80;95.20;;;;;;5107476;28;20547;-67
2023/02/12 08:08:23;;;;;;;5.23;3.07;;;6.90;95.20;;;;;;5108539;27;20200;-67
2023/02/12 08:10:51;;;;;;;5.67;2.80;;;7.00;95.20;;;;;;5104366;28;20539;-67
2023/02/12 08:13:18;;;;;;;4.23;2.20;;;7.10;95.10;;;;;;5105814;28;20209;-67
2023/02/12 08:15:45;;;;;;;3.00;1.80;;;7.10;95.10;;;;;;5104925;28;20283;-67
2023/02/12 08:18:12;;;;;;;3.60;1.90;;;7.20;95.00;;;;;;5103652;28;20192;-67
2023/02/12 08:20:40;;;;;;;5.40;2.17;;;7.20;94.90;;;;;;5107534;28;20203;-67
2023/02/12 08:23:07;;;;;;;3.47;1.90;;;7.20;94.70;;;;;;5107140;28;20224;-67
2023/02/12 08:25:35;;;;;;;3.27;2.10;;;7.20;94.70;;;;;;5105015;28;20540;-67
2023/02/12 08:28:02;;;;;;;2.40;2.00;;;7.20;94.70;;;;;;5104727;28;20188;-67
2023/02/12 08:30:29;;;;;;;3.97;2.13;;;7.20;94.60;;;;;;5104979;28;20699;-67
2023/02/12 08:32:56;;;;;;;4.57;2.00;;;7.20;94.60;;;;;;5102821;28;20208;-67
2023/02/12 08:35:23;;;;;;;2.67;1.90;;;7.20;94.70;;;;;;5107686;28;20555;-67
2023/02/12 08:37:52;;;;;;;2.70;1.80;;;7.30;94.80;;;;;;5105124;28;20662;-68
2023/02/12 08:40:19;;;;;;;3.57;2.27;;;7.30;94.80;;;;;;5103618;27;20200;-69
2023/02/12 08:42:46;;;;;;;3.13;2.23;;;7.40;94.80;;;;;;5101032;28;20732;-68
2023/02/12 08:45:13;;;;;;;6.57;3.30;;;7.40;94.80;;;;;;5100800;28;20204;-67
2023/02/12 08:47:40;;;;;;;7.60;3.57;;;7.40;94.60;;;;;;5096032;27;20192;-67
2023/02/12 08:50:08;;;;;;;7.70;3.60;;;7.40;94.70;;;;;;5102535;28;20200;-67
2023/02/12 08:52:36;;;;;;;6.73;3.80;;;7.30;94.70;;;;;;5105170;28;20627;-67
2023/02/12 08:55:05;;;;;;;8.07;3.77;;;7.30;94.80;;;;;;5106237;28;20244;-67
2023/02/12 08:57:33;;;;;;;7.93;3.83;;;7.30;94.90;;;;;;5101798;28;20486;-67
2023/02/12 09:00:00;;;;;;;10.43;4.70;;;7.30;94.90;;;;;;5103338;28;20245;-66
2023/02/12 09:02:27;;;;;;;10.60;5.03;;;7.40;95.00;;;;;;5103447;28;20199;-67
2023/02/12 09:04:54;;;;;;;8.40;4.57;;;7.40;95.00;;;;;;5106975;27;20211;-66
2023/02/12 09:07:21;;;;;;;11.50;5.27;;;7.40;95.00;;;;;;5101947;28;20279;-67
2023/02/12 09:09:49;;;;;;;8.20;4.20;;;7.40;95.00;;;;;;5102209;28;20204;-67
2023/02/12 09:12:17;;;;;;;9.83;4.60;;;7.40;95.00;;;;;;5103952;28;20195;-67
2023/02/12 09:14:44;;;;;;;8.50;4.17;;;7.40;95.10;;;;;;5102837;28;20207;-68
2023/02/12 09:17:11;;;;;;;8.67;3.97;;;7.50;95.20;;;;;;5096055;28;20255;-67
2023/02/12 09:19:39;;;;;;;5.80;3.47;;;7.60;95.10;;;;;;5101264;28;20227;-67
2023/02/12 09:22:06;;;;;;;7.67;3.63;;;7.60;95.10;;;;;;5104593;28;20509;-68
2023/02/12 09:24:33;;;;;;;7.70;3.43;;;7.70;95.10;;;;;;5100470;28;20222;-67
2023/02/12 09:27:00;;;;;;;10.93;5.53;;;7.80;95.10;;;;;;5104872;28;20204;-67
2023/02/12 09:29:29;;;;;;;8.60;4.57;;;7.80;95.00;;;;;;5106680;28;20191;-67
2023/02/12 09:31:56;;;;;;;6.90;3.60;;;7.80;94.80;;;;;;5102919;28;20196;-68
2023/02/12 09:34:23;;;;;;;5.90;3.13;;;7.80;94.80;;;;;;5102135;27;20192;-67
2023/02/12 09:36:53;;;;;;;4.70;2.40;;;7.80;94.80;;;;;;5104715;28;20291;-67
2023/02/12 09:39:20;;;;;;;4.83;2.57;;;7.90;94.90;;;;;;5101392;28;20553;-67
2023/02/12 09:42:12;;;;;;;3.70;2.53;;;7.90;94.80;;;;;;5101534;28;20195;-66
2023/02/12 09:44:48;;;;;;;5.23;2.70;;;8.00;94.80;;;;;;5105274;28;20264;-66
2023/02/12 09:47:20;;;;;;;7.50;3.27;;;8.20;94.70;;;;;;5095797;28;20188;-67
2023/02/12 09:50:17;;;;;;;5.53;3.23;;;8.20;94.40;;;;;;5103423;28;20308;-66
2023/02/12 09:52:44;;;;;;;4.43;2.90;;;8.20;94.50;;;;;;5103256;28;20199;-67
2023/02/12 09:55:15;;;;;;;4.37;3.00;;;8.20;94.40;;;;;;5102533;28;20278;-66
2023/02/12 09:57:43;;;;;;;9.60;3.90;;;8.20;94.40;;;;;;5102155;28;20249;-67
2023/02/12 10:00:18;;;;;;;6.13;3.67;;;8.10;94.30;;;;;;5105539;28;20203;-67
2023/02/12 10:02:45;;;;;;;4.70;2.70;;;8.10;94.40;;;;;;5098031;27;20191;-66
2023/02/12 10:05:17;;;;;;;4.53;2.90;;;8.10;94.50;;;;;;5104097;28;20211;-67
2023/02/12 10:08:05;;;;;;;5.70;3.47;;;8.20;94.60;;;;;;5105073;28;20355;-66
2023/02/12 10:10:45;;;;;;;7.63;3.80;;;8.20;94.50;;;;;;5103330;28;20210;-65
2023/02/12 10:13:22;;;;;;;7.37;3.73;;;8.10;94.60;;;;;;5097092;28;20199;-66
2023/02/12 10:15:59;;;;;;;8.13;4.43;;;8.10;94.70;;;;;;5106074;27;20211;-65
2023/02/12 10:18:45;;;;;;;7.00;3.80;;;8.20;94.70;;;;;;5103782;28;20197;-66
2023/02/12 10:21:23;;;;;;;7.20;3.57;;;8.20;94.70;;;;;;5091028;28;20295;-67
2023/02/12 10:24:12;;;;;;;7.33;3.70;;;8.30;94.80;;;;;;5101161;28;20609;-66
2023/02/12 10:26:44;;;;;;;6.03;3.47;;;8.40;94.80;;;;;;5105974;28;20206;-66
2023/02/12 10:29:16;;;;;;;7.27;3.80;;;8.50;94.80;;;;;;5102018;28;20193;-66
2023/02/12 10:31:47;;;;;;;9.90;3.50;;;8.60;94.70;;;;;;5104408;28;20184;-66
2023/02/12 10:34:18;;;;;;;8.10;4.07;;;8.70;94.70;;;;;;5105384;28;20656;-66
2023/02/12 10:36:47;;;;;;;7.43;3.90;;;8.70;94.50;;;;;;5098479;28;20195;-67
2023/02/12 10:39:20;;;;;;;9.37;4.47;;;8.70;94.50;;;;;;5104286;28;20225;-68
2023/02/12 10:41:55;;;;;;;7.77;3.97;;;8.80;94.60;;;;;;5099932;28;20191;-68
2023/02/12 10:44:22;;;;;;;6.27;3.70;;;8.90;94.30;;;;;;5102389;28;20227;-67
2023/02/12 10:46:50;;;;;;;7.30;3.57;;;9.00;94.30;;;;;;5103272;28;20195;-67
2023/02/12 10:49:20;;;;;;;9.53;4.00;;;9.00;94.00;;;;;;5097789;28;20598;-67
2023/02/12 10:52:13;;;;;;;6.53;3.37;;;9.10;93.90;;;;;;5104333;28;20730;-67
2023/02/12 10:54:42;;;;;;;5.97;3.60;;;9.30;94.00;;;;;;5085484;28;20192;-67
2023/02/12 10:57:20;;;;;;;8.90;3.77;;;9.40;93.70;;;;;;5101530;28;20197;-66
2023/02/12 10:59:49;;;;;;;9.97;4.30;;;9.50;93.70;;;;;;5102861;28;20195;-69
2023/02/12 11:02:27;;;;;;;8.27;3.10;;;9.60;93.50;;;;;;5096489;28;20194;-68
2023/02/12 11:04:56;;;;;;;7.57;3.47;;;9.80;93.60;;;;;;5103070;28;20263;-68
2023/02/12 11:07:24;;;;;;;8.80;4.30;;;9.90;93.50;;;;;;5099210;28;20234;-68
2023/02/12 11:09:54;;;;;;;6.33;3.13;;;10.10;92.80;;;;;;5105751;28;20546;-68
2023/02/12 11:12:30;;;;;;;4.90;2.93;;;10.30;92.40;;;;;;5106516;28;20203;-68
2023/02/12 11:14:59;;;;;;;5.07;3.43;;;10.40;92.40;;;;;;5107051;28;20280;-68
2023/02/12 11:17:33;;;;;;;5.80;3.27;;;10.40;92.30;;;;;;5103882;28;20196;-68
2023/02/12 11:20:23;;;;;;;5.07;2.97;;;10.60;92.30;;;;;;5102030;28;20203;-67
2023/02/12 11:22:53;;;;;;;5.60;3.40;;;10.80;92.10;;;;;;5105138;28;20224;-68
2023/02/12 11:25:22;;;;;;;6.97;3.13;;;10.90;91.80;;;;;;5108063;28;20671;-69
2023/02/12 11:28:12;;;;;;;4.93;2.80;;;11.10;91.70;;;;;;5104048;28;20570;-69
2023/02/12 11:30:50;;;;;;;6.03;3.70;;;11.30;91.70;;;;;;5102194;28;20191;-68
2023/02/12 11:33:24;;;;;;;5.17;3.20;;;11.40;91.10;;;;;;5100995;28;20200;-68
2023/02/12 11:35:54;;;;;;;5.03;2.90;;;11.40;90.90;;;;;;5105629;28;20184;-68
2023/02/12 11:38:28;;;;;;;6.80;3.30;;;11.30;90.90;;;;;;5103037;28;20192;-68
2023/02/12 11:41:00;;;;;;;8.70;3.57;;;11.30;90.70;;;;;;5106169;28;20196;-68
2023/02/12 11:43:29;;;;;;;6.20;3.30;;;11.20;90.40;;;;;;5104055;28;20189;-68
2023/02/12 11:45:59;;;;;;;5.07;3.07;;;11.10;90.60;;;;;;5126270;27;20291;-68
2023/02/12 11:48:31;;;;;;;6.20;3.43;;;11.10;90.80;;;;;;5099163;28;20199;-68
2023/02/12 11:51:02;;;;;;;5.80;3.50;;;11.10;90.70;;;;;;5108224;28;20612;-67
2023/02/12 11:53:32;;;;;;;5.53;3.23;;;11.10;90.50;;;;;;5103851;28;20191;-68
2023/02/12 11:56:02;;;;;;;7.43;3.70;;;11.10;90.50;;;;;;5100127;28;20205;-66
2023/02/12 11:58:30;;;;;;;7.40;3.10;;;11.10;90.50;;;;;;5100967;28;20273;-67
2023/02/12 12:01:04;;;;;;;8.60;4.10;;;11.10;90.60;;;;;;5106141;28;20186;-67
2023/02/12 12:03:39;;;;;;;5.93;3.60;;;11.10;90.60;;;;;;5101706;27;20186;-68
2023/02/12 12:06:14;;;;;;;10.57;4.30;;;11.20;90.60;;;;;;5109740;28;20246;-67
2023/02/12 12:08:45;;;;;;;7.73;3.80;;;11.20;90.60;;;;;;5104777;28;20194;-68
2023/02/12 12:11:17;;;;;;;6.70;3.70;;;11.10;90.50;;;;;;5103754;28;20194;-69
2023/02/12 12:13:49;;;;;;;7.17;4.00;;;11.10;90.60;;;;;;5105304;28;20194;-69
2023/02/12 12:22:28;;;;;;;5.97;4.00;;;11.00;90.80;;;;;;5102349;28;20889;-68
2023/02/12 12:25:01;;;;;;;6.70;4.63;;;10.90;90.90;;;;;;5105030;27;20203;-68
2023/02/12 12:30:24;;;;;;;8.03;4.13;;;10.90;91.20;;;;;;5102437;28;20191;-68
2023/02/12 12:32:54;;;;;;;6.27;4.07;;;10.90;91.40;;;;;;5099549;28;20551;-68
2023/02/12 12:35:39;;;;;;;4.17;3.30;;;10.90;91.60;;;;;;5104698;28;20195;-67
2023/02/12 12:38:18;;;;;;;5.77;3.30;;;10.80;91.80;;;;;;5104429;28;20203;-67
2023/02/12 12:41:02;;;;;;;7.13;3.37;;;10.60;92.10;;;;;;5105159;28;20434;-68
2023/02/12 12:43:45;;;;;;;8.17;3.50;;;10.40;92.50;;;;;;5105896;28;20624;-67
2023/02/12 12:46:23;;;;;;;6.77;3.03;;;10.20;93.00;;;;;;5103987;28;20214;-67
2023/02/12 12:49:22;;;;;;;7.43;3.23;;;10.00;93.30;;;;;;5104568;28;20214;-66
2023/02/12 12:52:06;;;;;;;6.93;3.03;;;9.90;94.10;;;;;;5070130;28;20189;-66
2023/02/12 12:54:50;;;;;;;7.90;2.80;;;9.80;94.40;;;;;;5101916;28;20275;-66
2023/02/12 12:57:28;;;;;;;6.20;2.47;;;9.80;94.50;;;;;;5106195;28;20195;-67
2023/02/12 13:00:15;;;;;;;6.63;3.03;;;9.70;94.60;;;;;;5107111;28;20187;-67
2023/02/12 13:03:19;;;;;;;3.93;2.63;;;9.70;94.90;;;;;;5098734;27;20189;-66
2023/02/12 13:06:16;;;;;;;6.93;3.17;;;9.60;95.00;;;;;;5106056;28;20298;-67
2023/02/12 13:09:00;;;;;;;4.63;2.83;;;9.60;95.30;;;;;;5103174;28;20699;-66
2023/02/12 13:11:37;;;;;;;4.07;2.47;;;9.40;95.40;;;;;;5103114;28;20191;-67
2023/02/12 13:14:19;;;;;;;4.83;2.70;;;9.30;95.50;;;;;;5107521;28;20294;-67
2023/02/12 13:16:54;;;;;;;5.10;2.50;;;9.30;95.70;;;;;;5100344;28;20248;-67
2023/02/12 13:19:32;;;;;;;5.13;2.30;;;9.20;95.80;;;;;;5104406;27;20198;-67
2023/02/12 13:22:06;;;;;;;3.00;2.13;;;9.20;96.00;;;;;;5106138;28;20225;-67
2023/02/12 13:24:43;;;;;;;2.30;2.00;;;9.10;96.10;;;;;;5105586;28;20207;-67
2023/02/12 13:27:15;;;;;;;2.80;2.37;;;9.10;96.20;;;;;;5091530;27;20191;-67
2023/02/12 13:29:48;;;;;;;3.33;1.97;;;9.10;96.30;;;;;;5102675;27;20247;-67